Time;durP1;ratioP1;P1;durP2;ratioP2;P2;SDS_P1;SDS_P2;PMS_P1;PMS_P2;Temp;Humidity;BMP_temperature;BMP_pressure;BME280_temperature;BME280_humidity;BME280_pressure;Samples;Min_cycle;Max_cycle;Signal;HPM_P1;HPM_P2
2024/01/08 00:00:10;;;;;;;7.35;2.00;;;;;;;11.11;100.00;98865.41;5030053;28;20476;-73
2024/01/08 00:02:36;;;;;;;4.82;2.72;;;;;;;11.10;100.00;98866.25;5029974;28;20033;-76
2024/01/08 00:05:01;;;;;;;9.98;3.20;;;;;;;11.13;100.00;98871.47;5030327;28;20036;-73
2024/01/08 00:07:27;;;;;;;4.15;2.10;;;;;;;10.69;100.00;98805.63;5029727;28;20037;-72
2024/01/08 00:09:52;;;;;;;5.97;2.50;;;;;;;11.19;100.00;98883.56;5030397;28;20034;-73
2024/01/08 00:12:18;;;;;;;4.88;1.70;;;;;;;11.22;100.00;98889.63;5020060;28;20037;-73
2024/01/08 00:14:43;;;;;;;6.25;2.95;;;;;;;11.22;100.00;98881.03;5013370;28;20041;-72
2024/01/08 00:17:09;;;;;;;7.47;3.35;;;;;;;11.11;100.00;98868.84;5015494;28;20051;-76
2024/01/08 00:19:34;;;;;;;9.63;2.75;;;;;;;11.12;100.00;98864.56;5012340;28;20037;-77
2024/01/08 00:22:00;;;;;;;7.22;2.63;;;;;;;11.31;100.00;98889.72;5012595;28;20517;-71
2024/01/08 00:24:25;;;;;;;9.32;2.72;;;;;;;11.23;100.00;98880.19;5016840;28;20022;-72
2024/01/08 00:26:51;;;;;;;7.45;3.40;;;;;;;11.17;100.00;98883.56;5013864;28;20072;-71
2024/01/08 00:29:16;;;;;;;9.13;3.10;;;;;;;10.88;100.00;98835.09;5011842;28;20116;-73
2024/01/08 00:31:42;;;;;;;8.05;2.63;;;;;;;10.89;100.00;98839.41;5013531;28;20025;-70
2024/01/08 00:34:08;;;;;;;22.17;5.80;;;;;;;10.93;100.00;98848.03;5011483;28;20032;-71
2024/01/08 00:36:36;;;;;;;12.27;4.82;;;;;;;11.22;100.00;98901.69;5012585;28;20026;-73
2024/01/08 00:39:02;;;;;;;16.40;5.93;;;;;;;10.83;100.00;98837.63;5011129;28;20053;-80
2024/01/08 00:41:28;;;;;;;18.10;7.70;;;;;;;11.16;100.00;98903.38;5016386;28;20017;-75
2024/01/08 00:43:53;;;;;;;25.00;9.75;;;;;;;11.15;100.00;98911.97;5026627;28;20064;-73
2024/01/08 00:46:19;;;;;;;19.15;7.55;;;;;;;10.79;100.00;98855.63;5028279;28;20036;-72
2024/01/08 00:48:44;;;;;;;19.83;6.95;;;;;;;11.09;100.00;98913.59;5026771;28;20072;-72
2024/01/08 00:51:10;;;;;;;12.55;6.03;;;;;;;10.81;100.00;98874.59;5031179;28;20076;-73
2024/01/08 00:53:35;;;;;;;12.52;5.60;;;;;;;10.86;100.00;98903.06;5033560;28;20026;-72
2024/01/08 00:56:01;;;;;;;15.50;6.32;;;;;;;10.80;100.00;98902.16;5032996;28;20021;-72
2024/01/08 00:58:26;;;;;;;11.32;4.95;;;;;;;10.83;100.00;98903.91;5033621;28;20033;-72
2024/01/08 01:00:52;;;;;;;9.75;4.38;;;;;;;10.76;100.00;98910.69;5026751;28;20526;-73
2024/01/08 01:03:17;;;;;;;15.52;5.28;;;;;;;10.71;100.00;98898.59;5033127;28;20025;-77
2024/01/08 01:05:43;;;;;;;8.93;4.75;;;;;;;10.65;100.00;98889.94;5033426;28;20072;-75
2024/01/08 01:08:08;;;;;;;10.63;5.38;;;;;;;10.71;100.00;98902.03;5033264;28;20017;-74
2024/01/08 01:10:34;;;;;;;11.43;5.25;;;;;;;10.73;100.00;98902.03;5032948;28;20472;-71
2024/01/08 01:12:59;;;;;;;12.00;5.40;;;;;;;10.55;100.00;98880.34;5033020;28;20389;-71
2024/01/08 01:15:25;;;;;;;14.77;5.25;;;;;;;10.63;100.00;98895.91;5032702;28;20022;-71
2024/01/08 01:17:53;;;;;;;13.15;4.88;;;;;;;10.48;100.00;98876.84;5033213;28;20026;-71
2024/01/08 01:20:18;;;;;;;11.63;4.43;;;;;;;10.51;100.00;98882.00;5033034;28;20483;-70
2024/01/08 01:22:44;;;;;;;12.82;4.95;;;;;;;10.44;100.00;98879.34;5033127;28;20041;-75
2024/01/08 01:25:09;;;;;;;12.68;5.45;;;;;;;10.51;100.00;98892.34;5032800;28;20028;-72
2024/01/08 01:27:35;;;;;;;10.52;4.57;;;;;;;10.51;100.00;98894.06;5033116;28;20087;-72
2024/01/08 01:30:01;;;;;;;14.25;5.10;;;;;;;10.46;100.00;98894.00;5031299;28;20029;-75
2024/01/08 01:32:26;;;;;;;12.10;4.55;;;;;;;10.44;100.00;98900.88;5032488;28;20052;-72
2024/01/08 01:34:52;;;;;;;7.60;3.35;;;;;;;10.33;100.00;98882.66;5032522;28;20025;-73
2024/01/08 01:37:17;;;;;;;9.55;2.95;;;;;;;9.96;100.00;98822.88;5032899;28;20395;-73
2024/01/08 01:39:43;;;;;;;9.95;3.60;;;;;;;10.40;100.00;98911.13;5032447;28;20057;-73
2024/01/08 01:42:08;;;;;;;9.63;3.10;;;;;;;10.35;100.00;98908.47;5032095;28;20029;-71
2024/01/08 01:44:33;;;;;;;10.23;4.35;;;;;;;10.15;100.00;98867.78;5032517;28;20121;-72
2024/01/08 01:46:59;;;;;;;10.55;4.07;;;;;;;10.42;100.00;98912.88;5032607;28;20030;-72
2024/01/08 01:49:25;;;;;;;10.50;3.58;;;;;;;10.37;100.00;98904.22;5032071;28;20018;-72
2024/01/08 01:51:51;;;;;;;8.43;3.40;;;;;;;10.45;100.00;98904.31;5030350;28;20029;-71
2024/01/08 01:54:18;;;;;;;7.20;3.00;;;;;;;10.44;100.00;98902.56;5031747;28;20033;-72
2024/01/08 01:56:47;;;;;;;10.18;3.70;;;;;;;10.38;100.00;98908.53;5032284;28;20025;-71
2024/01/08 01:59:15;;;;;;;12.25;3.83;;;;;;;10.32;100.00;98882.63;5013468;28;20509;-71
2024/01/08 02:01:41;;;;;;;7.78;3.42;;;;;;;10.42;100.00;98899.09;5031259;28;20389;-75
2024/01/08 02:04:08;;;;;;;9.43;3.65;;;;;;;10.11;100.00;98840.25;5031101;28;20020;-71
2024/01/08 02:06:36;;;;;;;12.90;4.05;;;;;;;10.54;100.00;98896.66;5032020;28;20032;-71
2024/01/08 02:09:02;;;;;;;9.35;3.13;;;;;;;10.52;100.00;98894.06;5031638;28;20480;-71
2024/01/08 02:11:29;;;;;;;9.88;3.53;;;;;;;10.50;100.00;98900.94;5032538;28;20033;-71
2024/01/08 02:13:54;;;;;;;7.47;3.45;;;;;;;10.28;100.00;98888.59;5047225;28;20468;-71
2024/01/08 02:16:20;;;;;;;9.55;3.60;;;;;;;10.27;100.00;98897.16;5031794;28;20104;-72
2024/01/08 02:18:46;;;;;;;11.55;3.38;;;;;;;10.32;100.00;98908.44;5030433;28;20040;-71
2024/01/08 02:21:12;;;;;;;12.30;4.43;;;;;;;10.08;100.00;98884.06;5031816;28;20068;-70
2024/01/08 02:23:37;;;;;;;9.95;3.80;;;;;;;10.08;100.00;98903.81;5031174;28;20561;-71
2024/01/08 02:26:03;;;;;;;8.10;3.85;;;;;;;9.76;100.00;98871.56;5032080;28;20030;-71
2024/01/08 02:28:28;;;;;;;10.98;3.83;;;;;;;9.77;100.00;98875.91;5031873;28;20021;-71
2024/01/08 02:30:55;;;;;;;9.07;3.72;;;;;;;9.79;100.00;98881.06;5031795;28;20033;-73
2024/01/08 02:33:21;;;;;;;9.15;4.13;;;;;;;9.73;100.00;98892.13;5031834;28;20028;-71
2024/01/08 02:35:46;;;;;;;10.15;3.75;;;;;;;9.36;100.00;98833.19;5031369;28;20029;-72
2024/01/08 02:38:12;;;;;;;10.77;4.40;;;;;;;9.93;100.00;98914.75;5031286;28;20029;-71
2024/01/08 02:40:37;;;;;;;11.23;4.07;;;;;;;9.90;100.00;98894.13;5031144;28;20042;-71
2024/01/08 02:43:03;;;;;;;10.80;3.90;;;;;;;9.94;100.00;98919.09;5031229;28;20033;-72
2024/01/08 02:45:31;;;;;;;10.13;4.50;;;;;;;9.88;100.00;98891.50;5031140;28;20033;-71
2024/01/08 02:47:56;;;;;;;10.13;3.92;;;;;;;9.96;100.00;98907.09;5031019;28;20040;-71
2024/01/08 02:50:22;;;;;;;7.35;4.30;;;;;;;10.08;100.00;98927.00;5031356;28;20033;-72
2024/01/08 02:52:47;;;;;;;9.05;4.47;;;;;;;9.79;100.00;98879.34;5030901;28;20033;-71
2024/01/08 02:55:13;;;;;;;9.27;4.10;;;;;;;10.15;100.00;98924.53;5030919;28;20415;-73
2024/01/08 02:57:38;;;;;;;10.70;5.20;;;;;;;10.12;100.00;98924.50;5029944;28;20045;-72
2024/01/08 03:00:05;;;;;;;7.78;3.92;;;;;;;9.73;100.00;98868.94;5031049;28;20468;-73
2024/01/08 03:02:31;;;;;;;9.57;3.88;;;;;;;10.01;100.00;98951.84;5031209;28;20442;-72
2024/01/08 03:04:57;;;;;;;9.07;3.40;;;;;;;9.81;100.00;98954.97;5030469;28;20105;-77
2024/01/08 03:07:22;;;;;;;8.45;3.10;;;;;;;9.60;100.00;98929.75;5030422;28;20032;-73
2024/01/08 03:09:49;;;;;;;10.23;3.88;;;;;;;9.54;100.00;98935.69;5031128;28;20105;-72
2024/01/08 03:12:15;;;;;;;7.63;2.63;;;;;;;9.48;100.00;98935.59;5030285;28;20025;-78
2024/01/08 03:14:41;;;;;;;13.00;2.97;;;;;;;9.06;100.00;98888.50;5030784;28;20583;-72
2024/01/08 03:17:07;;;;;;;5.93;2.53;;;;;;;9.28;100.00;98953.25;5030895;28;20022;-73
2024/01/08 03:19:32;;;;;;;6.57;3.20;;;;;;;9.01;100.00;98930.44;5030751;28;20502;-73
2024/01/08 03:22:01;;;;;;;7.18;3.08;;;;;;;8.95;100.00;98943.19;5030049;28;20025;-75
2024/01/08 03:24:27;;;;;;;13.35;3.00;;;;;;;8.96;100.00;98947.50;5030469;28;20391;-71
2024/01/08 03:26:53;;;;;;;11.07;4.00;;;;;;;8.56;100.00;98885.84;5011694;28;20026;-71
2024/01/08 03:29:18;;;;;;;11.95;4.50;;;;;;;8.34;100.00;98843.41;5030866;28;20029;-70
2024/01/08 03:31:44;;;;;;;12.18;5.25;;;;;;;9.00;100.00;98952.75;5030589;28;20036;-74
2024/01/08 03:34:10;;;;;;;17.35;6.65;;;;;;;8.98;100.00;98944.13;5030576;28;20040;-72
2024/01/08 03:36:36;;;;;;;13.63;6.72;;;;;;;8.86;100.00;98929.34;5030216;28;20033;-71
2024/01/08 03:39:01;;;;;;;16.52;7.57;;;;;;;8.88;100.00;98949.94;5030423;28;20049;-72
2024/01/08 03:41:27;;;;;;;21.60;7.95;;;;;;;8.95;100.00;98971.50;5030309;28;20095;-73
2024/01/08 03:43:52;;;;;;;21.85;8.65;;;;;;;8.85;100.00;98968.78;5011324;28;20041;-71
2024/01/08 03:46:18;;;;;;;20.70;8.52;;;;;;;8.98;100.00;98989.59;5029733;28;20048;-71
2024/01/08 03:48:43;;;;;;;20.33;9.02;;;;;;;8.85;100.00;98976.50;5030448;28;20121;-71
2024/01/08 03:51:09;;;;;;;22.25;8.88;;;;;;;8.85;100.00;98981.63;5030336;28;20402;-75
2024/01/08 03:53:34;;;;;;;20.70;8.70;;;;;;;8.90;100.00;98982.59;5030152;28;20048;-73
2024/01/08 03:56:00;;;;;;;19.40;8.25;;;;;;;8.97;100.00;99006.75;5030126;28;20026;-73
2024/01/08 03:58:25;;;;;;;20.15;7.90;;;;;;;8.53;100.00;98939.81;5030351;28;20452;-74
2024/01/08 04:00:52;;;;;;;17.52;7.15;;;;;;;8.92;100.00;99004.91;5029977;28;20025;-73
2024/01/08 04:03:17;;;;;;;15.30;7.65;;;;;;;8.89;100.00;99003.16;5030045;28;20029;-74
2024/01/08 04:05:43;;;;;;;15.95;8.38;;;;;;;8.83;100.00;99001.31;5029426;28;20112;-74
2024/01/08 04:08:08;;;;;;;18.90;7.38;;;;;;;8.81;100.00;98996.97;5028916;28;20056;-75
2024/01/08 04:10:34;;;;;;;14.25;6.57;;;;;;;8.94;100.00;99019.56;5030093;28;20029;-74
2024/01/08 04:12:59;;;;;;;11.85;5.68;;;;;;;8.87;100.00;99016.00;5030188;28;20511;-75
2024/01/08 04:15:25;;;;;;;11.45;5.72;;;;;;;8.79;100.00;99011.53;5028612;28;20476;-76
2024/01/08 04:17:50;;;;;;;11.90;6.13;;;;;;;8.97;100.00;99029.94;5030039;28;20045;-73
2024/01/08 04:20:16;;;;;;;11.32;6.53;;;;;;;8.74;100.00;99006.28;5029551;28;20065;-72
2024/01/08 04:22:44;;;;;;;9.45;5.20;;;;;;;8.83;100.00;99029.63;5029808;28;20034;-74
2024/01/08 04:25:10;;;;;;;12.00;5.22;;;;;;;8.71;100.00;99040.53;5030125;28;20033;-72
2024/01/08 04:27:35;;;;;;;12.15;5.90;;;;;;;8.64;100.00;99056.66;5034273;28;20438;-73
2024/01/08 04:30:01;;;;;;;14.13;7.10;;;;;;;8.35;100.00;99008.00;5033807;28;20088;-72
2024/01/08 04:32:26;;;;;;;10.65;5.95;;;;;;;8.76;100.00;99070.63;5032795;28;20034;-78
2024/01/08 04:34:52;;;;;;;13.38;5.70;;;;;;;8.63;100.00;99034.34;5032144;28;20017;-73
2024/01/08 04:37:17;;;;;;;12.93;6.47;;;;;;;8.89;100.00;99072.66;5033620;28;20523;-73
2024/01/08 04:39:43;;;;;;;10.98;5.88;;;;;;;8.49;100.00;99031.47;5031272;28;20119;-74
2024/01/08 04:42:09;;;;;;;10.57;6.72;;;;;;;8.64;100.00;99066.97;5033394;28;20096;-74
2024/01/08 04:44:34;;;;;;;10.63;6.38;;;;;;;8.92;100.00;99100.16;5033887;28;20041;-73
2024/01/08 04:47:00;;;;;;;11.55;6.40;;;;;;;8.81;100.00;99082.78;5033514;28;20029;-73
2024/01/08 04:49:25;;;;;;;14.25;6.93;;;;;;;8.67;100.00;99050.72;5033604;28;20702;-73
2024/01/08 04:51:51;;;;;;;10.30;6.78;;;;;;;8.91;100.00;99081.28;5033744;28;20095;-72
2024/01/08 04:54:16;;;;;;;11.75;6.90;;;;;;;9.10;100.00;99118.56;5033256;28;20025;-75
2024/01/08 04:56:42;;;;;;;13.95;7.10;;;;;;;9.08;100.00;99099.63;5033635;28;20026;-74
2024/01/08 04:59:08;;;;;;;14.18;7.40;;;;;;;9.33;100.00;99118.16;5033038;28;20519;-76
2024/01/08 05:01:37;;;;;;;15.15;8.07;;;;;;;9.46;100.00;99127.00;5033411;28;20041;-72
2024/01/08 05:04:04;;;;;;;12.77;7.30;;;;;;;9.18;100.00;99070.69;5032980;28;20022;-74
2024/01/08 05:06:29;;;;;;;15.05;6.93;;;;;;;9.36;100.00;99085.59;5033293;28;20022;-74
2024/01/08 05:08:55;;;;;;;13.13;7.00;;;;;;;9.18;100.00;99047.50;5033243;28;20021;-72
2024/01/08 05:11:21;;;;;;;12.25;6.88;;;;;;;9.66;100.00;99127.41;5033419;28;20056;-74
2024/01/08 05:13:47;;;;;;;12.85;6.68;;;;;;;9.58;100.00;99126.38;5032968;28;20398;-73
2024/01/08 05:16:13;;;;;;;9.25;6.03;;;;;;;9.55;100.00;99133.19;5033288;28;20030;-73
2024/01/08 05:18:38;;;;;;;12.48;6.13;;;;;;;9.56;100.00;99123.78;5030726;28;20495;-73
2024/01/08 05:21:04;;;;;;;20.85;11.10;;;;;;;9.65;100.00;99133.38;5033126;28;20053;-73
2024/01/08 05:23:31;;;;;;;60.90;30.92;;;;;;;9.74;100.00;99172.22;5029903;28;20752;-75
2024/01/08 05:25:59;;;;;;;27.30;11.32;;;;;;;9.67;100.00;99181.53;5030386;28;20136;-77
2024/01/08 05:28:28;;;;;;;20.27;9.90;;;;;;;9.27;100.00;99142.09;5030179;28;20037;-75
2024/01/08 05:30:54;;;;;;;17.02;8.02;;;;;;;9.29;100.00;99173.03;5013641;28;20102;-74
2024/01/08 05:33:20;;;;;;;14.73;5.97;;;;;;;8.96;100.00;99148.28;5029755;28;20025;-75
2024/01/08 05:35:46;;;;;;;11.65;5.47;;;;;;;9.07;100.00;99163.13;5030213;28;20187;-75
2024/01/08 05:38:12;;;;;;;10.23;5.65;;;;;;;8.90;100.00;99131.88;5029758;28;20574;-76
2024/01/08 05:40:38;;;;;;;8.55;5.32;;;;;;;8.94;100.00;99166.25;5030136;28;20050;-75
2024/01/08 05:43:03;;;;;;;8.73;3.50;;;;;;;8.89;100.00;99184.16;5029390;28;20037;-75
2024/01/08 05:45:30;;;;;;;11.98;4.18;;;;;;;8.64;100.00;99163.88;5027615;28;20577;-75
2024/01/08 05:47:55;;;;;;;11.02;4.68;;;;;;;8.98;100.00;99192.94;5029631;28;20556;-76
2024/01/08 05:50:25;;;;;;;9.60;4.57;;;;;;;8.94;100.00;99179.13;5029885;28;20116;-75
2024/01/08 05:52:51;;;;;;;;;;;;;;;9.08;100.00;99210.34;5029617;28;20492;-74
2024/01/08 05:55:16;;;;;;;11.00;5.00;;;;;;;8.95;100.00;99200.59;5031686;28;19913;-74
2024/01/08 05:57:42;;;;;;;10.13;4.43;;;;;;;8.93;100.00;99217.72;5032404;28;20402;-74
2024/01/08 06:00:08;;;;;;;10.60;4.70;;;;;;;8.74;100.00;99215.56;5032170;28;20065;-75
2024/01/08 06:02:36;;;;;;;8.13;4.55;;;;;;;8.57;100.00;99189.44;5032453;28;20038;-73
2024/01/08 06:05:01;;;;;;;8.32;5.45;;;;;;;8.49;100.00;99165.22;5032314;28;20393;-72
2024/01/08 06:07:27;;;;;;;9.65;5.70;;;;;;;8.90;100.00;99221.94;5032575;28;20040;-73
2024/01/08 06:09:52;;;;;;;7.03;4.38;;;;;;;8.87;100.00;99203.00;5032698;28;20037;-72
2024/01/08 06:12:19;;;;;;;8.60;4.00;;;;;;;9.04;100.00;99236.84;5029377;28;20060;-74
2024/01/08 06:14:44;;;;;;;13.65;4.60;;;;;;;8.69;100.00;99201.72;5012682;28;20038;-74
2024/01/08 06:17:10;;;;;;;9.57;5.00;;;;;;;8.76;100.00;99217.31;5022229;28;20081;-73
2024/01/08 06:19:36;;;;;;;10.77;4.32;;;;;;;8.34;100.00;99159.69;5022196;28;20041;-75
2024/01/08 06:22:02;;;;;;;7.90;4.68;;;;;;;8.86;100.00;99248.47;5025705;28;20029;-75
2024/01/08 06:24:28;;;;;;;10.32;5.20;;;;;;;8.96;100.00;99258.97;5033855;28;20107;-75
2024/01/08 06:26:53;;;;;;;9.35;5.30;;;;;;;8.74;100.00;99225.84;5033892;28;20468;-73
2024/01/08 06:29:19;;;;;;;12.35;4.85;;;;;;;9.03;100.00;99273.72;5022817;28;20038;-73
2024/01/08 06:31:45;;;;;;;14.73;5.38;;;;;;;9.12;100.00;99285.94;5031821;28;20036;-76
2024/01/08 06:34:11;;;;;;;11.00;5.32;;;;;;;9.23;100.00;99300.81;5032038;28;20029;-74
2024/01/08 06:36:38;;;;;;;11.98;6.88;;;;;;;8.71;100.00;99206.91;5031683;28;20107;-76
2024/01/08 06:39:05;;;;;;;13.60;7.22;;;;;;;9.15;100.00;99286.88;5029183;28;20188;-77
2024/01/08 06:41:30;;;;;;;13.50;6.53;;;;;;;9.07;100.00;99279.00;5031452;28;20099;-74
2024/01/08 06:43:56;;;;;;;14.10;6.28;;;;;;;9.18;100.00;99309.25;5031354;28;20483;-75
2024/01/08 06:46:22;;;;;;;13.77;6.60;;;;;;;9.25;100.00;99312.88;5031939;28;20034;-74
2024/01/08 06:48:49;;;;;;;10.35;6.80;;;;;;;9.22;100.00;99305.91;5030709;28;20025;-73
2024/01/08 06:51:14;;;;;;;12.45;6.68;;;;;;;8.83;100.00;99224.34;5031429;28;20104;-74
2024/01/08 06:53:39;;;;;;;11.27;6.05;;;;;;;9.46;100.00;99315.94;5031163;28;20029;-75
2024/01/08 06:56:06;;;;;;;10.52;6.20;;;;;;;9.20;100.00;99267.25;5031409;28;20029;-76
2024/01/08 06:58:31;;;;;;;16.77;6.47;;;;;;;9.33;100.00;99281.31;5012331;28;20042;-72
2024/01/08 07:00:57;;;;;;;15.98;5.53;;;;;;;9.71;100.00;99324.22;5030847;28;20025;-75
2024/01/08 07:03:23;;;;;;;13.77;6.10;;;;;;;9.78;100.00;99330.34;5031056;28;20076;-74
2024/01/08 07:05:48;;;;;;;13.15;5.43;;;;;;;9.85;100.00;99327.94;5030994;28;20021;-76
2024/01/08 07:08:14;;;;;;;12.65;5.30;;;;;;;9.69;100.00;99297.53;5031353;28;20046;-73
2024/01/08 07:10:39;;;;;;;14.27;5.07;;;;;;;9.47;100.00;99276.47;5030677;28;20021;-77
2024/01/08 07:13:05;;;;;;;8.60;4.13;;;;;;;9.66;100.00;99318.94;5030506;28;20026;-75
2024/01/08 07:15:49;;;;;;;10.45;3.80;;;;;;;9.64;100.00;99333.50;5031069;28;20025;-77
2024/01/08 07:18:18;;;;;;;6.60;3.58;;;;;;;9.77;100.00;99355.28;5029565;28;20395;-74
2024/01/08 07:20:44;;;;;;;6.50;3.87;;;;;;;9.77;100.00;99357.84;5030729;28;20128;-74
2024/01/08 07:23:12;;;;;;;8.30;3.80;;;;;;;9.80;100.00;99362.22;5030730;28;20168;-72
2024/01/08 07:25:39;;;;;;;9.63;3.90;;;;;;;9.60;100.00;99362.63;5030684;28;20483;-75
2024/01/08 07:28:07;;;;;;;11.20;4.45;;;;;;;9.60;100.00;99380.66;5030518;28;20030;-79
2024/01/08 07:30:33;;;;;;;14.30;8.52;;;;;;;9.48;100.00;99370.94;5031255;28;20037;-73
2024/01/08 07:32:58;;;;;;;16.60;10.30;;;;;;;9.49;100.00;99382.97;5029502;28;20021;-74
2024/01/08 07:35:24;;;;;;;11.35;7.28;;;;;;;9.41;100.00;99373.31;5030874;28;20025;-75
2024/01/08 07:37:55;;;;;;;10.57;5.85;;;;;;;9.34;100.00;99406.66;5030429;28;20040;-73
2024/01/08 07:40:24;;;;;;;7.32;4.85;;;;;;;9.02;100.00;99357.81;5030730;28;20059;-75
2024/01/08 07:42:52;;;;;;;8.85;4.93;;;;;;;8.74;100.00;99315.06;5030470;28;20029;-75
2024/01/08 07:45:18;;;;;;;9.55;4.32;;;;;;;9.29;100.00;99404.81;5030434;28;20038;-76
2024/01/08 07:47:43;;;;;;;8.73;4.70;;;;;;;9.27;100.00;99412.50;5030393;28;20029;-75
2024/01/08 07:50:10;;;;;;;8.60;4.53;;;;;;;9.12;100.00;99410.41;5030221;28;20037;-74
2024/01/08 07:52:38;;;;;;;8.25;4.43;;;;;;;9.14;100.00;99413.03;5030320;28;20025;-78
2024/01/08 07:55:05;;;;;;;7.97;3.90;;;;;;;9.12;100.00;99430.13;5030826;28;20132;-74
2024/01/08 07:57:30;;;;;;;6.97;3.65;;;;;;;8.77;100.00;99370.88;5025774;28;20516;-75
2024/01/08 07:59:57;;;;;;;5.28;3.60;;;;;;;8.89;100.00;99399.50;5029599;28;20113;-75
2024/01/08 08:02:23;;;;;;;6.82;3.75;;;;;;;9.12;100.00;99441.31;5028295;28;20029;-79
2024/01/08 08:04:49;;;;;;;6.00;3.80;;;;;;;8.95;100.00;99415.13;5030088;28;20033;-74
2024/01/08 08:07:14;;;;;;;9.18;4.13;;;;;;;9.04;100.00;99417.06;5029759;28;20029;-75
2024/01/08 08:09:40;;;;;;;9.73;4.32;;;;;;;8.82;100.00;99390.78;5030458;28;20069;-76
2024/01/08 08:12:06;;;;;;;7.15;4.20;;;;;;;9.20;100.00;99450.09;5011114;28;20041;-77
2024/01/08 08:14:32;;;;;;;7.70;3.63;;;;;;;9.12;100.00;99437.84;5030332;28;20091;-73
2024/01/08 08:16:58;;;;;;;9.02;3.40;;;;;;;9.04;100.00;99435.09;5029845;28;20029;-76
2024/01/08 08:19:24;;;;;;;12.95;4.38;;;;;;;9.25;100.00;99462.25;5030127;28;20088;-75
2024/01/08 08:21:49;;;;;;;10.80;4.97;;;;;;;9.19;100.00;99468.94;5029875;28;20468;-74
2024/01/08 08:24:15;;;;;;;7.90;4.10;;;;;;;9.19;100.00;99475.81;5030307;28;20092;-77
2024/01/08 08:26:42;;;;;;;8.07;4.28;;;;;;;9.10;100.00;99465.25;5028721;28;20404;-76
2024/01/08 08:29:10;;;;;;;9.60;6.32;;;;;;;9.17;100.00;99482.63;5029760;28;20480;-77
2024/01/08 08:31:35;;;;;;;13.32;7.55;;;;;;;8.94;100.00;99448.56;5030111;28;20026;-81
2024/01/08 08:34:01;;;;;;;11.00;6.32;;;;;;;9.11;100.00;99470.47;5029642;28;20091;-77
2024/01/08 08:36:27;;;;;;;8.43;4.95;;;;;;;9.26;100.00;99490.59;5028395;28;20044;-76
2024/01/08 08:38:52;;;;;;;10.50;5.55;;;;;;;9.32;100.00;99500.19;5029902;28;20544;-75
2024/01/08 08:41:19;;;;;;;6.78;4.50;;;;;;;9.31;100.00;99498.44;5027530;28;20566;-75
2024/01/08 08:43:45;;;;;;;7.18;3.25;;;;;;;9.29;100.00;99487.25;5029842;28;20029;-78
2024/01/08 08:46:10;;;;;;;7.25;3.67;;;;;;;9.25;100.00;99498.31;5029994;28;20037;-76
2024/01/08 08:48:36;;;;;;;7.45;3.45;;;;;;;8.92;100.00;99445.91;5029785;28;20030;-76
2024/01/08 08:51:02;;;;;;;11.27;5.60;;;;;;;8.94;100.00;99454.56;5029650;28;20116;-77
2024/01/08 08:53:29;;;;;;;7.82;5.18;;;;;;;9.17;100.00;99495.50;5029525;28;20025;-76
2024/01/08 08:55:55;;;;;;;9.38;6.47;;;;;;;9.34;100.00;99511.41;5028107;28;20029;-74
2024/01/08 08:58:23;;;;;;;10.23;4.30;;;;;;;8.78;100.00;99404.38;5028572;28;20391;-76
2024/01/08 09:00:50;;;;;;;14.32;4.88;;;;;;;9.11;100.00;99455.03;5029436;28;20136;-79
2024/01/08 09:03:35;;;;;;;20.77;5.75;;;;;;;9.52;100.00;99523.88;5007178;28;20045;-79
2024/01/08 09:06:01;;;;;;;24.23;5.53;;;;;;;9.48;100.00;99509.19;5007399;28;20034;-75
2024/01/08 09:08:27;;;;;;;26.15;7.18;;;;;;;9.46;100.00;99505.69;5006940;28;20042;-75
2024/01/08 09:10:52;;;;;;;15.13;3.97;;;;;;;9.70;100.00;99531.22;5007271;28;20040;-75
2024/01/08 09:13:18;;;;;;;9.00;3.72;;;;;;;9.60;100.00;99503.50;5010425;28;20030;-76
2024/01/08 09:15:43;;;;;;;12.25;3.83;;;;;;;9.70;100.00;99536.38;5011067;28;20500;-74
2024/01/08 09:18:09;;;;;;;6.22;2.40;;;;;;;9.74;100.00;99527.03;5010579;28;20088;-75
2024/01/08 09:20:34;;;;;;;4.40;2.00;;;;;;;9.83;100.00;99542.69;5010935;28;20025;-75
2024/01/08 09:23:00;;;;;;;3.10;1.85;;;;;;;9.86;100.00;99545.38;5010289;28;20042;-76
2024/01/08 09:25:25;;;;;;;5.90;1.83;;;;;;;9.82;100.00;99551.25;5010927;28;20038;-75
2024/01/08 09:27:51;;;;;;;4.35;2.30;;;;;;;9.59;100.00;99510.31;5010715;28;20145;-73
2024/01/08 09:30:19;;;;;;;7.47;2.75;;;;;;;9.71;100.00;99530.41;5010817;28;20026;-74
2024/01/08 09:32:44;;;;;;;5.50;2.50;;;;;;;9.88;100.00;99554.00;4971032;28;20527;-75
2024/01/08 09:35:10;;;;;;;4.15;2.00;;;;;;;9.57;100.00;99517.16;4971817;28;20038;-73
2024/01/08 09:37:36;;;;;;;4.07;2.10;;;;;;;9.44;100.00;99497.94;4971721;28;20112;-74
2024/01/08 09:40:01;;;;;;;4.53;2.58;;;;;;;9.45;100.00;99483.34;4973199;28;20066;-73
2024/01/08 09:42:29;;;;;;;3.75;2.40;;;;;;;9.61;100.00;99507.78;4990745;28;20109;-74
2024/01/08 09:44:55;;;;;;;4.35;2.72;;;;;;;9.50;100.00;99487.78;4991092;28;20035;-75
2024/01/08 09:47:21;;;;;;;4.82;2.80;;;;;;;9.90;100.00;99554.91;4990743;28;20065;-76
2024/01/08 09:49:47;;;;;;;4.63;2.78;;;;;;;9.78;100.00;99552.03;4991055;28;20080;-76
2024/01/08 09:52:16;;;;;;;5.22;2.88;;;;;;;9.53;100.00;99531.69;4987502;28;20065;-78
2024/01/08 09:54:43;;;;;;;5.50;2.65;;;;;;;9.73;100.00;99564.78;4973804;28;20747;-77
2024/01/08 09:57:09;;;;;;;3.40;2.10;;;;;;;9.76;100.00;99570.03;4990930;28;20042;-76
2024/01/08 09:59:35;;;;;;;3.45;2.10;;;;;;;9.80;100.00;99561.53;4990929;28;20093;-76
2024/01/08 10:02:01;;;;;;;2.97;2.00;;;;;;;9.92;100.00;99573.88;4974219;28;20056;-74
2024/01/08 10:04:26;;;;;;;5.10;2.88;;;;;;;9.64;100.00;99526.78;4990948;28;20528;-75
2024/01/08 10:07:13;;;;;;;3.33;1.92;;;;;;;9.84;100.00;99547.03;4970944;28;20425;-75
2024/01/08 10:09:38;;;;;;;3.95;2.03;;;;;;;10.01;100.00;99576.69;4981148;28;20046;-77
2024/01/08 10:12:09;;;;;;;5.22;2.63;;;;;;;9.98;100.00;99583.47;4977315;28;20041;-75
2024/01/08 10:14:35;;;;;;;3.78;2.08;;;;;;;9.55;100.00;99524.84;4960895;28;20429;-73
2024/01/08 10:17:01;;;;;;;5.95;3.75;;;;;;;9.75;100.00;99565.72;5010074;28;20455;-78
2024/01/08 10:19:27;;;;;;;8.20;3.92;;;;;;;9.88;100.00;99580.66;5001286;28;20041;-77
2024/01/08 10:22:12;;;;;;;7.15;3.45;;;;;;;9.81;100.00;99567.59;5010079;28;20042;-74
2024/01/08 10:24:40;;;;;;;4.60;3.08;;;;;;;9.77;100.00;99579.53;4998277;28;20632;-75
2024/01/08 10:27:10;;;;;;;3.35;2.10;;;;;;;9.39;100.00;99513.28;5010329;28;20484;-77
2024/01/08 10:29:36;;;;;;;3.67;2.15;;;;;;;9.75;100.00;99578.59;4956638;28;20129;-74
2024/01/08 10:32:02;;;;;;;3.75;1.90;;;;;;;9.51;100.00;99527.31;4988580;28;20043;-75
2024/01/08 10:34:29;;;;;;;3.15;1.80;;;;;;;9.84;100.00;99586.59;4987374;28;20050;-75
2024/01/08 10:36:57;;;;;;;3.70;2.00;;;;;;;9.82;100.00;99587.34;4962785;28;20617;-75
2024/01/08 10:39:22;;;;;;;3.25;2.28;;;;;;;9.66;100.00;99565.50;4971709;28;20051;-74
2024/01/08 10:41:49;;;;;;;3.03;1.90;;;;;;;9.49;100.00;99544.44;4955223;28;20043;-75
2024/01/08 10:44:14;;;;;;;2.33;1.30;;;;;;;9.59;100.00;99568.75;4963609;28;20045;-75
2024/01/08 10:47:10;;;;;;;2.15;1.42;;;;;;;9.58;100.00;99578.16;5006396;28;20821;-75
2024/01/08 10:49:38;;;;;;;1.50;1.20;;;;;;;9.41;100.00;99531.34;4950960;29;20541;-72
2024/01/08 10:52:17;;;;;;;2.20;1.30;;;;;;;9.81;100.00;99594.22;4951120;29;20031;-73
2024/01/08 10:54:53;;;;;;;1.95;1.10;;;;;;;9.86;100.00;99595.22;4950804;29;20278;-74
2024/01/08 10:57:21;;;;;;;2.17;1.00;;;;;;;9.80;100.00;99589.91;4950955;29;20034;-77
2024/01/08 10:59:50;;;;;;;1.83;1.00;;;;;;;9.80;100.00;99597.63;4954024;28;20046;-77
2024/01/08 11:02:16;;;;;;;1.55;1.20;;;;;;;9.72;100.00;99583.69;4969997;28;20034;-72
2024/01/08 11:04:44;;;;;;;1.52;1.15;;;;;;;9.74;100.00;99586.31;4970216;28;20493;-72
2024/01/08 11:07:13;;;;;;;1.75;1.30;;;;;;;9.76;100.00;99579.47;4966334;28;20101;-74
2024/01/08 11:09:39;;;;;;;1.15;1.02;;;;;;;9.79;100.00;99582.13;4970342;28;20109;-75
2024/01/08 11:12:10;;;;;;;1.60;1.05;;;;;;;9.83;100.00;99590.00;4970037;28;20038;-78
2024/01/08 11:14:36;;;;;;;5.32;1.80;;;;;;;10.01;100.00;99620.53;4969983;28;20042;-74
2024/01/08 11:17:02;;;;;;;4.20;1.90;;;;;;;9.98;100.00;99630.78;4969787;28;20409;-72
2024/01/08 11:19:27;;;;;;;4.28;2.05;;;;;;;9.86;100.00;99592.63;4969869;28;20054;-74
2024/01/08 11:22:07;;;;;;;3.60;2.30;;;;;;;9.94;100.00;99605.72;4969544;28;20110;-74